createdAt,value
2022-10-23T00:01:16.158Z,2.00
2022-10-23T00:03:44.776Z,2.03
2022-10-23T00:06:13.515Z,1.90
2022-10-23T00:08:42.585Z,1.90
2022-10-23T00:11:12.130Z,1.80
2022-10-23T00:13:40.261Z,2.15
2022-10-23T00:16:09.376Z,1.67
2022-10-23T00:18:39.708Z,1.83
2022-10-23T00:21:11.445Z,2.13
2022-10-23T00:23:40.513Z,1.98
2022-10-23T00:26:11.135Z,1.90
2022-10-23T00:28:39.519Z,1.60
2022-10-23T00:31:07.485Z,1.70
2022-10-23T00:33:35.428Z,2.00
2022-10-23T00:36:07.388Z,1.80
2022-10-23T00:38:36.061Z,1.70
2022-10-23T00:41:04.040Z,1.60
2022-10-23T00:43:32.827Z,1.75
2022-10-23T00:46:00.884Z,2.00
2022-10-23T00:48:29.898Z,2.25
2022-10-23T00:50:57.960Z,1.77
2022-10-23T00:53:27.208Z,1.60
2022-10-23T00:55:57.702Z,1.90
2022-10-23T00:58:25.620Z,2.08
2022-10-23T01:00:55.959Z,2.20
2022-10-23T01:03:27.025Z,2.05
2022-10-23T01:06:10.726Z,1.95
2022-10-23T01:08:45.285Z,2.08
2022-10-23T01:11:16.783Z,2.25
2022-10-23T01:13:52.145Z,2.13
2022-10-23T01:16:24.788Z,1.98
2022-10-23T01:19:00.143Z,2.03
2022-10-23T01:21:36.236Z,2.30
2022-10-23T01:24:19.654Z,1.90
2022-10-23T01:26:58.405Z,1.58
2022-10-23T01:29:33.862Z,2.05
2022-10-23T01:32:08.137Z,2.08
2022-10-23T01:34:43.765Z,2.58
2022-10-23T01:37:16.150Z,2.20
2022-10-23T01:39:49.112Z,2.00
2022-10-23T01:42:20.493Z,2.15
2022-10-23T01:44:53.752Z,1.85
2022-10-23T01:47:25.649Z,2.17
2022-10-23T01:50:03.513Z,2.03
2022-10-23T01:52:32.190Z,2.13
2022-10-23T01:55:02.494Z,1.95
2022-10-23T01:57:35.307Z,1.98
2022-10-23T02:00:08.277Z,2.10
2022-10-23T02:02:53.616Z,2.33
2022-10-23T02:05:27.653Z,1.88
2022-10-23T02:07:57.147Z,2.17
2022-10-23T02:10:33.560Z,1.90
2022-10-23T02:13:05.097Z,2.00
2022-10-23T02:15:40.623Z,2.13
2022-10-23T02:18:15.869Z,1.90
2022-10-23T02:20:47.664Z,2.10
2022-10-23T02:23:21.850Z,2.20
2022-10-23T02:25:55.129Z,2.20
2022-10-23T02:28:27.597Z,2.03
2022-10-23T02:31:01.459Z,2.00
2022-10-23T02:33:33.158Z,2.15
2022-10-23T02:36:01.114Z,1.90
2022-10-23T02:38:40.436Z,2.38
2022-10-23T02:41:20.272Z,2.25
2022-10-23T02:43:58.920Z,2.15
2022-10-23T02:46:37.342Z,2.13
2022-10-23T02:49:12.772Z,2.25
2022-10-23T02:52:01.564Z,1.90
2022-10-23T02:54:47.857Z,2.10
2022-10-23T02:57:23.933Z,2.20
2022-10-23T03:00:00.452Z,2.22
2022-10-23T03:02:36.293Z,2.28
2022-10-23T03:05:06.781Z,2.45
2022-10-23T03:07:35.386Z,2.20
2022-10-23T03:10:08.520Z,2.05
2022-10-23T03:12:37.841Z,2.10
2022-10-23T03:15:08.150Z,2.15
2022-10-23T03:17:37.413Z,2.45
2022-10-23T03:20:05.539Z,2.00
2022-10-23T03:22:33.557Z,2.13
2022-10-23T03:25:02.154Z,2.08
2022-10-23T03:27:32.113Z,1.95
2022-10-23T03:30:04.177Z,2.00
2022-10-23T03:32:32.799Z,2.33
2022-10-23T03:35:02.625Z,2.17
2022-10-23T03:37:30.572Z,2.28
2022-10-23T03:39:58.480Z,2.33
2022-10-23T03:42:26.689Z,2.33
2022-10-23T03:44:54.600Z,2.30
2022-10-23T03:47:22.449Z,2.13
2022-10-23T03:49:50.414Z,2.03
2022-10-23T03:52:19.906Z,2.22
2022-10-23T03:54:47.821Z,2.00
2022-10-23T03:57:17.541Z,1.92
2022-10-23T03:59:45.482Z,2.33
2022-10-23T04:02:13.404Z,2.05
2022-10-23T04:04:41.328Z,2.40
2022-10-23T04:07:09.236Z,2.33
2022-10-23T04:09:38.576Z,2.00
2022-10-23T04:12:07.559Z,2.10
2022-10-23T04:14:35.453Z,2.10
2022-10-23T04:17:04.399Z,2.30
2022-10-23T04:19:32.402Z,2.38
2022-10-23T04:22:00.340Z,2.20
2022-10-23T04:24:28.448Z,2.60
2022-10-23T04:26:57.712Z,2.50
2022-10-23T04:29:31.615Z,2.33
2022-10-23T04:31:59.925Z,2.25
2022-10-23T04:34:27.825Z,2.40
2022-10-23T04:36:55.723Z,1.83
2022-10-23T04:39:23.981Z,2.30
2022-10-23T04:41:51.870Z,2.40
2022-10-23T04:44:22.100Z,2.38
2022-10-23T04:46:50.097Z,2.03
2022-10-23T04:49:18.209Z,2.10
2022-10-23T04:52:05.313Z,2.47
2022-10-23T04:54:46.643Z,2.38
2022-10-23T04:57:28.428Z,2.40
2022-10-23T05:00:09.824Z,2.35
2022-10-23T05:02:45.225Z,2.35
2022-10-23T05:05:15.532Z,2.05
2022-10-23T05:07:56.277Z,1.88
2022-10-23T05:10:41.579Z,2.22
2022-10-23T05:13:15.236Z,2.10
2022-10-23T05:15:44.552Z,2.22
2022-10-23T05:18:16.267Z,2.10
2022-10-23T05:20:47.805Z,2.30
2022-10-23T05:23:19.349Z,2.22
2022-10-23T05:25:55.549Z,2.33
2022-10-23T05:28:23.573Z,2.08
2022-10-23T05:30:53.677Z,2.42
2022-10-23T05:33:26.613Z,2.05
2022-10-23T05:35:54.697Z,2.30
2022-10-23T05:38:24.734Z,2.20
2022-10-23T05:40:53.257Z,2.80
2022-10-23T05:43:23.207Z,2.10
2022-10-23T05:45:58.512Z,2.20
2022-10-23T05:48:50.585Z,2.10
2022-10-23T05:51:37.910Z,2.40
2022-10-23T05:54:21.572Z,2.20
2022-10-23T05:56:57.972Z,2.13
2022-10-23T05:59:55.167Z,2.30
2022-10-23T06:02:42.806Z,1.83
2022-10-23T06:05:33.775Z,1.98
2022-10-23T06:08:24.376Z,2.22
2022-10-23T06:10:52.841Z,2.70
2022-10-23T06:13:21.024Z,2.65
2022-10-23T06:15:49.269Z,2.30
2022-10-23T06:18:22.333Z,2.20
2022-10-23T06:20:56.314Z,2.17
2022-10-23T06:23:28.028Z,2.00
2022-10-23T06:26:12.636Z,2.22
2022-10-23T06:29:00.972Z,2.65
2022-10-23T06:31:29.242Z,2.10
2022-10-23T06:34:00.474Z,2.20
2022-10-23T06:36:30.427Z,2.25
2022-10-23T06:39:16.580Z,2.75
2022-10-23T06:41:55.404Z,2.15
2022-10-23T06:45:04.870Z,2.50
2022-10-23T06:47:54.266Z,2.33
2022-10-23T06:50:42.416Z,2.10
2022-10-23T06:53:14.505Z,2.25
2022-10-23T06:55:50.229Z,2.30
2022-10-23T06:58:21.040Z,2.20
2022-10-23T07:01:02.122Z,2.50
2022-10-23T07:03:30.789Z,2.20
2022-10-23T07:06:02.936Z,2.03
2022-10-23T07:08:31.501Z,2.03
2022-10-23T07:11:03.440Z,2.30
2022-10-23T07:13:31.475Z,1.98
2022-10-23T07:16:11.778Z,2.10
2022-10-23T07:18:39.776Z,2.30
2022-10-23T07:21:27.846Z,2.10
2022-10-23T07:24:00.255Z,2.30
2022-10-23T07:26:28.932Z,1.85
2022-10-23T07:28:58.456Z,2.03
2022-10-23T07:31:28.503Z,2.45
2022-10-23T07:34:14.856Z,2.10
2022-10-23T07:36:45.484Z,1.90
2022-10-23T07:39:14.115Z,2.22
2022-10-23T07:41:48.577Z,2.20
2022-10-23T07:44:16.946Z,1.92
2022-10-23T07:46:44.854Z,1.90
2022-10-23T07:49:12.807Z,2.13
2022-10-23T07:51:41.446Z,2.30
2022-10-23T07:54:13.358Z,2.28
2022-10-23T07:56:44.206Z,2.00
2022-10-23T07:59:41.410Z,2.00
2022-10-23T08:02:12.946Z,1.95
2022-10-23T08:04:41.451Z,1.80
2022-10-23T08:07:21.006Z,1.70
2022-10-23T08:09:52.226Z,2.28
2022-10-23T08:12:20.128Z,2.00
2022-10-23T08:14:48.042Z,2.20
2022-10-23T08:17:16.322Z,2.05
2022-10-23T08:20:04.301Z,1.88
2022-10-23T08:22:39.164Z,2.03
2022-10-23T08:25:09.485Z,2.15
2022-10-23T08:27:37.656Z,1.95
2022-10-23T08:30:06.573Z,1.98
2022-10-23T08:32:34.488Z,2.00
2022-10-23T08:35:04.556Z,2.10
2022-10-23T08:37:35.220Z,1.95
2022-10-23T08:40:03.252Z,2.20
2022-10-23T08:43:02.871Z,1.92
2022-10-23T08:45:36.410Z,1.70
2022-10-23T08:48:17.433Z,2.05
2022-10-23T08:51:26.524Z,1.88
2022-10-23T08:54:01.715Z,2.00
2022-10-23T08:56:35.516Z,2.10
2022-10-23T08:59:15.144Z,2.95
2022-10-23T09:01:46.182Z,8.52
2022-10-23T09:04:16.413Z,32.13
2022-10-23T09:06:54.701Z,18.40
2022-10-23T09:09:39.549Z,14.50
2022-10-23T09:12:12.707Z,9.20
2022-10-23T09:14:55.490Z,8.13
2022-10-23T09:17:26.074Z,5.88
2022-10-23T09:20:00.812Z,5.60
2022-10-23T09:22:29.970Z,5.35
2022-10-23T09:24:57.860Z,5.13
2022-10-23T09:27:25.868Z,4.50
2022-10-23T09:29:57.017Z,4.18
2022-10-23T09:32:34.565Z,4.22
2022-10-23T09:35:02.600Z,4.03
2022-10-23T09:37:32.000Z,3.72
2022-10-23T09:40:16.234Z,3.03
2022-10-23T09:42:58.930Z,3.38
2022-10-23T09:45:31.626Z,2.92
2022-10-23T09:48:13.098Z,2.97
2022-10-23T09:50:52.196Z,3.00
2022-10-23T09:53:27.829Z,2.80
2022-10-23T09:55:57.930Z,2.65
2022-10-23T09:58:32.997Z,3.03
2022-10-23T10:01:03.054Z,2.20
2022-10-23T10:03:50.564Z,2.25
2022-10-23T10:06:24.573Z,2.60
2022-10-23T10:08:55.945Z,1.75
2022-10-23T10:11:29.673Z,1.85
2022-10-23T10:14:12.593Z,1.75
2022-10-23T10:16:51.558Z,1.77
2022-10-23T10:19:33.380Z,1.73
2022-10-23T10:22:12.703Z,1.70
2022-10-23T10:24:52.051Z,1.67
2022-10-23T10:27:33.820Z,1.90
2022-10-23T10:30:10.550Z,2.00
2022-10-23T10:32:46.036Z,1.70
2022-10-23T10:35:27.073Z,1.50
2022-10-23T10:38:11.650Z,1.75
2022-10-23T10:40:43.371Z,1.40
2022-10-23T10:43:25.110Z,1.65
2022-10-23T10:45:58.488Z,2.00
2022-10-23T10:48:40.518Z,1.55
2022-10-23T10:51:31.046Z,1.38
2022-10-23T10:54:17.047Z,1.42
2022-10-23T10:56:46.720Z,1.55
2022-10-23T10:59:22.041Z,1.38
2022-10-23T11:01:57.948Z,1.20
2022-10-23T11:04:35.053Z,1.42
2022-10-23T11:07:08.637Z,1.20
2022-10-23T11:09:36.688Z,1.90
2022-10-23T11:12:04.995Z,1.45
2022-10-23T11:14:35.543Z,1.38
2022-10-23T11:17:10.196Z,1.90
2022-10-23T11:19:45.086Z,1.23
2022-10-23T11:22:22.430Z,1.67
2022-10-23T11:25:24.128Z,1.80
2022-10-23T11:28:10.562Z,4.55
2022-10-23T11:30:49.656Z,3.25
2022-10-23T11:33:55.140Z,2.88
2022-10-23T11:36:41.468Z,2.95
2022-10-23T11:39:19.991Z,2.42
2022-10-23T11:41:54.319Z,1.90
2022-10-23T11:44:44.288Z,1.88
2022-10-23T11:47:36.400Z,1.77
2022-10-23T11:50:15.782Z,1.60
2022-10-23T11:53:12.973Z,1.38
2022-10-23T11:55:57.717Z,1.55
2022-10-23T11:58:32.531Z,1.60
2022-10-23T12:01:05.213Z,1.40
2022-10-23T12:03:52.164Z,1.65
2022-10-23T12:06:25.962Z,1.30
2022-10-23T12:09:00.473Z,1.02
2022-10-23T12:11:44.174Z,1.55
2022-10-23T12:14:38.297Z,1.55
2022-10-23T12:17:30.167Z,1.42
2022-10-23T12:20:04.956Z,1.40
2022-10-23T12:22:39.725Z,1.23
2022-10-23T12:25:14.789Z,1.13
2022-10-23T12:27:51.303Z,1.42
2022-10-23T12:30:23.519Z,1.10
2022-10-23T12:33:08.439Z,1.25
2022-10-23T12:36:03.293Z,1.10
2022-10-23T12:38:35.331Z,1.08
2022-10-23T12:41:13.995Z,1.30
2022-10-23T12:43:44.949Z,1.30
2022-10-23T12:46:37.612Z,1.00
2022-10-23T12:49:16.327Z,1.20
2022-10-23T12:51:44.826Z,1.10
2022-10-23T12:54:17.848Z,1.13
2022-10-23T12:56:47.829Z,2.13
2022-10-23T12:59:18.006Z,1.05
2022-10-23T13:01:50.441Z,1.48
2022-10-23T13:04:28.919Z,1.50
2022-10-23T13:06:58.715Z,4.30
2022-10-23T13:09:30.690Z,31.65
2022-10-23T13:12:27.268Z,435.83
2022-10-23T13:14:58.447Z,338.92
2022-10-23T13:17:35.639Z,360.88
2022-10-23T13:20:11.625Z,326.42
2022-10-23T13:22:41.869Z,453.42
2022-10-23T13:25:27.880Z,581.75
2022-10-23T13:28:13.577Z,571.47
2022-10-23T13:30:43.870Z,598.90
2022-10-23T13:33:16.190Z,571.65
2022-10-23T13:35:44.333Z,474.60
2022-10-23T13:38:12.195Z,397.17
2022-10-23T13:40:40.089Z,321.30
2022-10-23T13:43:15.984Z,250.05
2022-10-23T13:45:43.964Z,197.10
2022-10-23T13:48:15.190Z,152.60
2022-10-23T13:50:43.315Z,130.43
2022-10-23T13:53:13.865Z,109.30
2022-10-23T13:55:44.157Z,90.20
2022-10-23T13:58:13.735Z,81.70
2022-10-23T14:00:43.719Z,70.97
2022-10-23T14:03:12.045Z,60.03
2022-10-23T14:05:39.939Z,55.38
2022-10-23T14:08:08.077Z,52.15
2022-10-23T14:10:37.592Z,48.17
2022-10-23T14:13:05.602Z,40.83
2022-10-23T14:15:34.944Z,40.97
2022-10-23T14:18:07.312Z,40.50
2022-10-23T14:20:36.204Z,35.25
2022-10-23T14:23:04.117Z,32.97
2022-10-23T14:25:32.131Z,30.67
2022-10-23T14:28:00.043Z,28.20
2022-10-23T14:30:27.939Z,26.08
2022-10-23T14:32:57.179Z,21.98
2022-10-23T14:35:25.985Z,20.85
2022-10-23T14:37:54.465Z,18.58
2022-10-23T14:40:22.405Z,17.50
2022-10-23T14:42:50.330Z,17.88
2022-10-23T14:45:18.431Z,17.20
2022-10-23T14:47:46.677Z,18.30
2022-10-23T14:50:18.236Z,16.33
2022-10-23T14:52:46.168Z,16.15
2022-10-23T14:55:14.104Z,15.23
2022-10-23T14:57:42.232Z,13.75
2022-10-23T15:00:11.811Z,14.02
2022-10-23T15:02:39.749Z,13.68
2022-10-23T15:05:08.610Z,12.45
2022-10-23T15:07:37.921Z,11.90
2022-10-23T15:10:06.377Z,11.38
2022-10-23T15:12:34.333Z,10.18
2022-10-23T15:15:02.400Z,10.45
2022-10-23T15:17:32.025Z,10.00
2022-10-23T15:19:59.952Z,9.27
2022-10-23T15:22:27.936Z,8.63
2022-10-23T15:24:57.576Z,7.90
2022-10-23T15:27:25.458Z,7.72
2022-10-23T15:29:53.599Z,7.15
2022-10-23T15:32:21.470Z,7.13
2022-10-23T15:34:49.811Z,6.22
2022-10-23T15:37:17.771Z,6.50
2022-10-23T15:39:46.165Z,5.65
2022-10-23T15:42:15.401Z,5.07
2022-10-23T15:44:43.302Z,6.07
2022-10-23T15:47:11.368Z,5.18
2022-10-23T15:49:39.932Z,4.55
2022-10-23T15:54:41.735Z,4.20
2022-10-23T15:57:10.615Z,4.30
2022-10-23T15:59:40.017Z,3.50
2022-10-23T16:02:09.007Z,4.13
2022-10-23T16:04:36.978Z,3.65
2022-10-23T16:07:04.880Z,3.30
2022-10-23T16:09:32.893Z,3.75
2022-10-23T16:12:00.837Z,3.13
2022-10-23T16:14:28.808Z,3.28
2022-10-23T16:16:58.226Z,3.40
2022-10-23T16:19:26.174Z,3.22
2022-10-23T16:21:54.114Z,3.40
2022-10-23T16:24:22.098Z,3.45
2022-10-23T16:26:53.287Z,2.90
2022-10-23T16:29:22.034Z,3.17
2022-10-23T16:31:49.929Z,3.65
2022-10-23T16:34:19.589Z,3.17
2022-10-23T16:36:47.845Z,3.03
2022-10-23T16:39:33.801Z,3.03
2022-10-23T16:42:20.212Z,3.10
2022-10-23T16:45:10.139Z,2.60
2022-10-23T16:47:38.095Z,2.85
2022-10-23T16:50:07.872Z,3.10
2022-10-23T16:52:36.228Z,2.42
2022-10-23T16:55:04.274Z,2.50
2022-10-23T16:57:32.145Z,2.58
2022-10-23T17:00:00.111Z,3.40
2022-10-23T17:02:28.206Z,2.92
2022-10-23T17:04:56.201Z,2.60
2022-10-23T17:07:25.465Z,2.50
2022-10-23T17:09:53.426Z,2.75
2022-10-23T17:12:21.409Z,2.40
2022-10-23T17:14:49.341Z,2.85
2022-10-23T17:17:17.549Z,2.30
2022-10-23T17:19:46.508Z,2.33
2022-10-23T17:22:15.503Z,2.38
2022-10-23T17:24:47.674Z,2.72
2022-10-23T17:27:18.373Z,2.63
2022-10-23T17:29:46.350Z,2.95
2022-10-23T17:32:14.463Z,2.78
2022-10-23T17:34:42.505Z,2.83
2022-10-23T17:37:13.241Z,2.53
2022-10-23T17:39:42.488Z,2.75
2022-10-23T17:42:11.802Z,2.85
2022-10-23T17:44:39.700Z,2.90
2022-10-23T17:47:07.616Z,2.88
2022-10-23T17:49:35.597Z,2.45
2022-10-23T17:52:03.527Z,2.83
2022-10-23T17:54:31.435Z,3.20
2022-10-23T17:56:59.462Z,2.95
2022-10-23T17:59:28.861Z,2.95
2022-10-23T18:01:58.887Z,3.05
2022-10-23T18:04:27.127Z,2.95
2022-10-23T18:06:55.252Z,3.00
2022-10-23T18:09:25.480Z,2.95
2022-10-23T18:11:54.163Z,2.92
2022-10-23T18:14:26.106Z,3.17
2022-10-23T18:16:58.729Z,3.08
2022-10-23T18:19:27.115Z,2.97
2022-10-23T18:21:55.277Z,3.22
2022-10-23T18:24:23.619Z,3.20
2022-10-23T18:26:51.717Z,3.05
2022-10-23T18:29:23.468Z,2.72
2022-10-23T18:31:51.626Z,2.90
2022-10-23T18:34:24.457Z,2.75
2022-10-23T18:36:55.355Z,2.83
2022-10-23T18:39:25.952Z,3.15
2022-10-23T18:41:56.144Z,3.15
2022-10-23T18:44:26.961Z,2.55
2022-10-23T18:46:56.343Z,2.20
2022-10-23T18:49:26.182Z,2.50
2022-10-23T18:51:54.667Z,2.70
2022-10-23T18:54:23.293Z,2.38
2022-10-23T18:56:51.995Z,2.40
2022-10-23T18:59:21.939Z,2.35
2022-10-23T19:01:50.471Z,2.60
2022-10-23T19:04:19.353Z,2.17
2022-10-23T19:06:50.990Z,2.30
2022-10-23T19:09:19.427Z,2.20
2022-10-23T19:11:48.879Z,2.08
2022-10-23T19:14:18.580Z,1.67
2022-10-23T19:16:58.479Z,2.00
2022-10-23T19:19:31.231Z,1.98
2022-10-23T19:22:03.276Z,1.55
2022-10-23T19:24:39.133Z,1.83
2022-10-23T19:27:07.650Z,1.60
2022-10-23T19:29:39.641Z,1.75
2022-10-23T19:32:09.599Z,1.70
2022-10-23T19:34:37.709Z,1.60
2022-10-23T19:37:09.254Z,1.88
2022-10-23T19:39:38.510Z,1.70
2022-10-23T19:42:09.325Z,1.70
2022-10-23T19:44:37.318Z,1.85
2022-10-23T19:47:05.873Z,1.70
2022-10-23T19:49:35.412Z,1.70
2022-10-23T19:52:03.418Z,2.00
2022-10-23T19:54:34.044Z,2.30
2022-10-23T19:57:02.499Z,2.15
2022-10-23T19:59:30.678Z,1.88
2022-10-23T20:01:58.755Z,1.77
2022-10-23T20:04:28.814Z,2.25
2022-10-23T20:06:57.542Z,2.13
2022-10-23T20:09:25.523Z,2.63
2022-10-23T20:11:55.688Z,1.73
2022-10-23T20:14:23.759Z,2.10
2022-10-23T20:16:55.734Z,2.10
2022-10-23T20:19:24.251Z,2.03
2022-10-23T20:21:52.463Z,2.53
2022-10-23T20:24:21.609Z,2.00
2022-10-23T20:26:52.194Z,2.10
2022-10-23T20:29:22.292Z,2.10
2022-10-23T20:31:50.289Z,2.40
2022-10-23T20:34:19.048Z,2.25
2022-10-23T20:36:48.946Z,2.20
2022-10-23T20:39:18.927Z,2.50
2022-10-23T20:41:47.548Z,2.50
2022-10-23T20:46:51.915Z,2.75
2022-10-23T20:49:20.587Z,2.28
2022-10-23T20:51:54.889Z,2.67
2022-10-23T20:54:23.757Z,2.88
2022-10-23T20:56:51.728Z,2.75
2022-10-23T20:59:20.162Z,2.20
2022-10-23T21:01:53.167Z,2.63
2022-10-23T21:04:24.409Z,2.10
2022-10-23T21:07:11.021Z,1.90
2022-10-23T21:09:39.366Z,1.88
2022-10-23T21:12:07.994Z,2.00
2022-10-23T21:14:36.547Z,2.88
2022-10-23T21:17:05.882Z,2.70
2022-10-23T21:19:33.767Z,2.63
2022-10-23T21:22:01.683Z,2.55
2022-10-23T21:24:29.553Z,2.67
2022-10-23T21:26:57.442Z,2.70
2022-10-23T21:29:25.548Z,2.70
2022-10-23T21:31:54.628Z,2.70
2022-10-23T21:34:24.540Z,3.15
2022-10-23T21:37:12.934Z,2.75
2022-10-23T21:39:40.622Z,3.22
2022-10-23T21:42:08.565Z,3.20
2022-10-23T21:44:36.687Z,3.28
2022-10-23T21:47:05.104Z,3.03
2022-10-23T21:49:34.411Z,2.83
2022-10-23T21:52:02.429Z,2.80
2022-10-23T21:54:30.412Z,3.00
2022-10-23T21:56:58.298Z,2.70
2022-10-23T21:59:30.195Z,2.85
2022-10-23T22:01:59.923Z,2.85
2022-10-23T22:04:27.976Z,2.85
2022-10-23T22:06:57.379Z,2.65
2022-10-23T22:09:27.492Z,2.90
2022-10-23T22:11:56.191Z,2.85
2022-10-23T22:14:24.717Z,2.70
2022-10-23T22:16:53.237Z,3.70
2022-10-23T22:19:22.922Z,2.72
2022-10-23T22:21:51.927Z,2.80
2022-10-23T22:24:21.537Z,2.35
2022-10-23T22:26:51.105Z,2.80
2022-10-23T22:29:21.857Z,2.72
2022-10-23T22:31:50.223Z,2.65
2022-10-23T22:34:28.612Z,3.03
2022-10-23T22:37:08.136Z,3.20
2022-10-23T22:39:37.517Z,2.33
2022-10-23T22:42:05.565Z,2.60
2022-10-23T22:44:33.509Z,2.58
2022-10-23T22:47:01.408Z,2.85
2022-10-23T22:49:29.438Z,2.78
2022-10-23T22:51:57.449Z,2.50
2022-10-23T22:54:25.353Z,3.20
2022-10-23T22:56:54.606Z,2.85
2022-10-23T22:59:22.494Z,2.60
2022-10-23T23:01:51.261Z,2.92
2022-10-23T23:04:37.209Z,2.92
2022-10-23T23:07:06.309Z,3.33
2022-10-23T23:09:37.670Z,2.63
2022-10-23T23:12:07.468Z,2.75
2022-10-23T23:14:35.464Z,3.28
2022-10-23T23:17:03.578Z,2.60
2022-10-23T23:19:31.554Z,2.45
2022-10-23T23:22:00.297Z,2.67
2022-10-23T23:24:28.195Z,2.90
2022-10-23T23:26:56.147Z,2.53
2022-10-23T23:29:25.419Z,2.17
2022-10-23T23:31:53.431Z,2.97
2022-10-23T23:34:21.291Z,3.00
2022-10-23T23:36:49.215Z,2.70
2022-10-23T23:39:17.195Z,3.00
2022-10-23T23:41:45.113Z,2.70
2022-10-23T23:44:12.969Z,2.53
2022-10-23T23:46:42.310Z,2.58
2022-10-23T23:49:10.193Z,2.38
2022-10-23T23:51:38.230Z,2.40
2022-10-23T23:54:06.273Z,2.58
2022-10-23T23:56:34.206Z,2.58
2022-10-23T23:59:02.045Z,2.28
